createdAt,value
2023-01-31T00:01:55.371Z,4.80
2023-01-31T00:04:23.132Z,5.25
2023-01-31T00:06:52.107Z,5.00
2023-01-31T00:09:20.024Z,5.82
2023-01-31T00:11:47.745Z,5.40
2023-01-31T00:14:19.738Z,5.45
2023-01-31T00:16:48.886Z,5.85
2023-01-31T00:19:16.756Z,5.85
2023-01-31T00:21:45.876Z,5.50
2023-01-31T00:24:14.662Z,5.43
2023-01-31T00:26:42.709Z,5.20
2023-01-31T00:29:10.489Z,4.78
2023-01-31T00:31:38.955Z,5.38
2023-01-31T00:34:08.738Z,5.20
2023-01-31T00:36:37.817Z,5.05
2023-01-31T00:39:07.871Z,4.93
2023-01-31T00:41:37.460Z,5.13
2023-01-31T00:44:06.434Z,5.55
2023-01-31T00:46:34.669Z,5.35
2023-01-31T00:49:03.055Z,5.18
2023-01-31T00:51:32.365Z,4.95
2023-01-31T00:54:00.035Z,5.70
2023-01-31T00:56:27.759Z,5.15
2023-01-31T00:58:55.732Z,5.38
2023-01-31T01:01:26.172Z,5.22
2023-01-31T01:03:54.916Z,5.28
2023-01-31T01:06:23.694Z,5.15
2023-01-31T01:08:53.454Z,4.80
2023-01-31T01:11:24.415Z,5.18
2023-01-31T01:13:53.214Z,4.70
2023-01-31T01:16:22.676Z,5.82
2023-01-31T01:18:51.135Z,5.32
2023-01-31T01:21:20.934Z,4.70
2023-01-31T01:23:49.470Z,4.93
2023-01-31T01:26:20.852Z,5.05
2023-01-31T01:28:50.122Z,5.90
2023-01-31T01:31:19.224Z,5.30
2023-01-31T01:33:48.877Z,5.75
2023-01-31T01:36:22.014Z,5.88
2023-01-31T01:38:50.154Z,5.95
2023-01-31T01:41:20.365Z,5.97
2023-01-31T01:43:51.436Z,5.05
2023-01-31T01:46:24.259Z,5.50
2023-01-31T01:48:56.589Z,5.32
2023-01-31T01:51:25.217Z,5.07
2023-01-31T01:53:58.044Z,4.82
2023-01-31T01:56:33.916Z,5.75
2023-01-31T01:59:06.527Z,4.22
2023-01-31T02:01:37.457Z,4.85
2023-01-31T02:04:07.753Z,4.88
2023-01-31T02:06:36.015Z,5.40
2023-01-31T02:09:07.234Z,4.70
2023-01-31T02:11:36.381Z,4.88
2023-01-31T02:14:11.466Z,4.90
2023-01-31T02:16:39.280Z,5.00
2023-01-31T02:19:17.673Z,5.18
2023-01-31T02:22:06.863Z,4.90
2023-01-31T02:25:09.618Z,5.40
2023-01-31T02:28:16.677Z,5.07
2023-01-31T02:31:18.795Z,5.65
2023-01-31T02:33:54.251Z,5.67
2023-01-31T02:36:35.395Z,6.05
2023-01-31T02:39:13.773Z,5.60
2023-01-31T02:41:46.810Z,5.75
2023-01-31T02:44:39.707Z,5.28
2023-01-31T02:49:46.449Z,5.38
2023-01-31T02:52:22.076Z,5.43
2023-01-31T02:55:19.192Z,5.80
2023-01-31T02:57:50.314Z,5.45
2023-01-31T03:00:18.811Z,5.65
2023-01-31T03:02:46.503Z,5.85
2023-01-31T03:05:18.061Z,5.45
2023-01-31T03:07:49.508Z,5.95
2023-01-31T03:10:29.012Z,5.53
2023-01-31T03:13:10.510Z,5.38
2023-01-31T03:16:03.704Z,5.63
2023-01-31T03:18:38.180Z,5.30
2023-01-31T03:21:11.445Z,5.05
2023-01-31T03:23:42.164Z,6.10
2023-01-31T03:26:11.586Z,5.75
2023-01-31T03:28:43.580Z,6.10
2023-01-31T03:31:17.805Z,6.30
2023-01-31T03:33:49.435Z,6.93
2023-01-31T03:36:30.937Z,5.60
2023-01-31T03:39:15.552Z,6.32
2023-01-31T03:41:58.343Z,6.07
2023-01-31T03:44:36.515Z,5.55
2023-01-31T03:47:09.781Z,6.45
2023-01-31T03:49:41.855Z,6.30
2023-01-31T03:52:14.080Z,5.72
2023-01-31T03:54:47.184Z,7.35
2023-01-31T03:57:19.238Z,7.35
2023-01-31T03:59:53.911Z,7.50
2023-01-31T04:02:24.591Z,7.50
2023-01-31T04:04:56.946Z,8.63
2023-01-31T04:07:26.323Z,9.52
2023-01-31T04:09:54.204Z,9.93
2023-01-31T04:12:22.022Z,10.50
2023-01-31T04:14:49.721Z,9.90
2023-01-31T04:17:17.400Z,9.95
2023-01-31T04:19:45.069Z,10.27
2023-01-31T04:22:12.851Z,10.18
2023-01-31T04:24:41.952Z,10.07
2023-01-31T04:27:09.961Z,10.02
2023-01-31T04:29:37.744Z,10.63
2023-01-31T04:32:06.071Z,10.90
2023-01-31T04:34:34.163Z,11.30
2023-01-31T04:37:01.974Z,10.95
2023-01-31T04:39:29.773Z,11.20
2023-01-31T04:41:58.888Z,10.93
2023-01-31T04:44:26.603Z,10.68
2023-01-31T04:46:54.352Z,12.13
2023-01-31T04:49:22.079Z,12.60
2023-01-31T04:51:49.754Z,10.95
2023-01-31T04:54:17.498Z,11.63
2023-01-31T04:56:45.324Z,9.70
2023-01-31T04:59:14.322Z,10.10
2023-01-31T05:01:42.770Z,10.80
2023-01-31T05:04:10.913Z,10.13
2023-01-31T05:06:38.640Z,11.02
2023-01-31T05:09:06.625Z,10.95
2023-01-31T05:11:34.463Z,11.55
2023-01-31T05:14:02.162Z,10.35
2023-01-31T05:16:31.618Z,9.65
2023-01-31T05:18:59.343Z,10.45
2023-01-31T05:21:27.115Z,9.65
2023-01-31T05:23:54.785Z,10.23
2023-01-31T05:26:22.566Z,10.68
2023-01-31T05:28:50.301Z,10.50
2023-01-31T05:31:18.336Z,12.15
2023-01-31T05:33:47.515Z,9.43
2023-01-31T05:36:15.224Z,11.35
2023-01-31T05:38:42.892Z,11.13
2023-01-31T05:41:10.643Z,11.00
2023-01-31T05:43:38.411Z,10.65
2023-01-31T05:46:06.273Z,10.82
2023-01-31T05:48:34.433Z,12.00
2023-01-31T05:51:03.509Z,11.00
2023-01-31T05:53:31.269Z,12.02
2023-01-31T05:55:59.016Z,11.40
2023-01-31T05:58:26.778Z,12.13
2023-01-31T06:00:56.571Z,10.98
2023-01-31T06:03:24.375Z,10.82
2023-01-31T06:05:52.113Z,10.45
2023-01-31T06:08:21.213Z,11.75
2023-01-31T06:10:48.912Z,10.48
2023-01-31T06:13:16.733Z,10.40
2023-01-31T06:15:44.728Z,10.55
2023-01-31T06:18:13.252Z,11.43
2023-01-31T06:20:40.964Z,10.93
2023-01-31T06:23:08.747Z,10.25
2023-01-31T06:25:37.867Z,10.20
2023-01-31T06:28:05.892Z,10.75
2023-01-31T06:30:33.684Z,11.25
2023-01-31T06:33:01.567Z,9.95
2023-01-31T06:35:29.314Z,11.10
2023-01-31T06:37:57.106Z,9.73
2023-01-31T06:40:24.904Z,11.57
2023-01-31T06:42:54.019Z,11.15
2023-01-31T06:45:22.169Z,10.77
2023-01-31T06:47:50.235Z,10.90
2023-01-31T06:50:18.852Z,10.90
2023-01-31T06:52:46.688Z,11.48
2023-01-31T06:55:14.804Z,10.68
2023-01-31T06:57:48.228Z,9.45
2023-01-31T07:00:19.624Z,11.70
2023-01-31T07:02:47.919Z,10.88
2023-01-31T07:05:16.079Z,11.20
2023-01-31T07:07:43.800Z,10.57
2023-01-31T07:10:12.502Z,10.27
2023-01-31T07:12:40.462Z,10.95
2023-01-31T07:15:09.651Z,11.18
2023-01-31T07:17:40.417Z,11.70
2023-01-31T07:20:09.420Z,10.75
2023-01-31T07:22:37.129Z,10.52
2023-01-31T07:25:05.459Z,10.35
2023-01-31T07:27:33.167Z,8.98
2023-01-31T07:30:00.921Z,9.15
2023-01-31T07:32:31.035Z,10.45
2023-01-31T07:35:00.432Z,11.18
2023-01-31T07:37:28.186Z,10.35
2023-01-31T07:39:56.040Z,10.88
2023-01-31T07:42:23.809Z,10.10
2023-01-31T07:44:51.613Z,10.20
2023-01-31T07:47:19.320Z,8.15
2023-01-31T07:49:48.443Z,9.75
2023-01-31T07:52:17.838Z,9.93
2023-01-31T07:54:45.620Z,10.93
2023-01-31T07:57:13.843Z,9.23
2023-01-31T07:59:41.503Z,9.57
2023-01-31T08:02:30.585Z,9.35
2023-01-31T08:04:58.494Z,9.77
2023-01-31T08:07:28.338Z,8.88
2023-01-31T08:09:56.451Z,8.43
2023-01-31T08:12:24.196Z,9.60
2023-01-31T08:14:51.942Z,9.10
2023-01-31T08:17:19.689Z,9.40
2023-01-31T08:19:47.413Z,8.70
2023-01-31T08:22:15.086Z,9.60
2023-01-31T08:24:44.455Z,9.98
2023-01-31T08:27:12.191Z,10.25
2023-01-31T08:29:39.893Z,9.93
2023-01-31T08:32:07.705Z,9.93
2023-01-31T08:34:35.474Z,10.05
2023-01-31T08:37:03.241Z,9.38
2023-01-31T08:39:30.962Z,10.30
2023-01-31T08:42:00.119Z,9.70
2023-01-31T08:44:27.853Z,9.27
2023-01-31T08:46:55.613Z,8.07
2023-01-31T08:49:23.374Z,9.75
2023-01-31T08:51:51.091Z,8.00
2023-01-31T08:54:18.887Z,7.63
2023-01-31T08:56:46.576Z,7.35
2023-01-31T08:59:15.867Z,8.40
2023-01-31T09:01:45.634Z,8.20
2023-01-31T09:04:13.370Z,7.85
2023-01-31T09:06:41.050Z,12.05
2023-01-31T09:09:08.755Z,7.93
2023-01-31T09:11:36.617Z,7.32
2023-01-31T09:14:04.415Z,6.90
2023-01-31T09:16:33.640Z,8.10
2023-01-31T09:19:01.302Z,7.55
2023-01-31T09:21:29.853Z,7.15
2023-01-31T09:23:58.941Z,7.03
2023-01-31T09:26:26.786Z,6.75
2023-01-31T09:28:54.549Z,7.20
2023-01-31T09:31:22.747Z,7.40
2023-01-31T09:33:52.035Z,6.50
2023-01-31T09:36:21.096Z,6.28
2023-01-31T09:38:49.241Z,6.55
2023-01-31T09:41:24.535Z,6.05
2023-01-31T09:43:55.795Z,6.70
2023-01-31T09:46:28.504Z,6.93
2023-01-31T09:49:02.028Z,6.03
2023-01-31T09:51:30.777Z,6.95
2023-01-31T09:53:58.728Z,6.68
2023-01-31T09:56:36.822Z,7.00
2023-01-31T09:59:18.769Z,5.95
2023-01-31T10:01:54.867Z,6.85
2023-01-31T10:04:45.783Z,6.00
2023-01-31T10:07:20.256Z,6.10
2023-01-31T10:09:53.432Z,6.43
2023-01-31T10:12:23.754Z,6.13
2023-01-31T10:14:55.504Z,6.05
2023-01-31T10:17:27.338Z,5.72
2023-01-31T10:20:01.335Z,5.53
2023-01-31T10:22:35.593Z,5.85
2023-01-31T10:25:17.374Z,5.60
2023-01-31T10:27:50.890Z,6.10
2023-01-31T10:30:22.413Z,6.65
2023-01-31T10:32:57.183Z,6.28
2023-01-31T10:35:31.763Z,5.68
2023-01-31T10:38:05.336Z,6.32
2023-01-31T10:40:37.209Z,5.80
2023-01-31T10:43:16.599Z,5.28
2023-01-31T10:45:44.407Z,5.40
2023-01-31T10:48:26.059Z,5.05
2023-01-31T10:51:08.320Z,5.70
2023-01-31T10:53:49.562Z,5.05
2023-01-31T10:56:23.102Z,5.20
2023-01-31T10:58:51.868Z,5.28
2023-01-31T11:01:19.798Z,5.70
2023-01-31T11:03:51.105Z,6.13
2023-01-31T11:06:23.608Z,5.18
2023-01-31T11:11:23.105Z,6.07
2023-01-31T11:13:59.698Z,6.05
2023-01-31T11:16:30.972Z,6.03
2023-01-31T11:19:00.241Z,5.60
2023-01-31T11:21:32.329Z,5.97
2023-01-31T11:24:04.732Z,6.00
2023-01-31T11:26:34.927Z,6.13
2023-01-31T11:29:08.176Z,6.35
2023-01-31T11:31:39.705Z,6.10
2023-01-31T11:34:20.198Z,6.50
2023-01-31T11:36:49.262Z,7.30
2023-01-31T11:39:27.998Z,6.60
2023-01-31T11:41:56.283Z,7.18
2023-01-31T11:44:24.497Z,7.57
2023-01-31T11:46:55.449Z,7.72
2023-01-31T11:49:29.733Z,8.18
2023-01-31T11:52:00.170Z,7.78
2023-01-31T11:54:32.304Z,7.90
2023-01-31T11:57:01.227Z,7.22
2023-01-31T11:59:31.398Z,10.02
2023-01-31T12:02:01.759Z,9.30
2023-01-31T12:04:33.837Z,9.20
2023-01-31T12:07:21.393Z,8.23
2023-01-31T12:09:49.153Z,8.57
2023-01-31T12:12:27.885Z,7.20
2023-01-31T12:14:57.438Z,7.55
2023-01-31T12:17:25.231Z,7.72
2023-01-31T12:20:25.436Z,7.32
2023-01-31T12:23:06.045Z,8.35
2023-01-31T12:25:48.179Z,9.90
2023-01-31T12:28:28.795Z,9.30
2023-01-31T12:31:11.535Z,9.07
2023-01-31T12:33:57.758Z,7.88
2023-01-31T12:36:38.905Z,9.07
2023-01-31T12:39:34.329Z,8.88
2023-01-31T12:42:24.371Z,9.07
2023-01-31T12:45:06.469Z,9.65
2023-01-31T12:48:00.039Z,9.25
2023-01-31T12:50:32.396Z,9.57
2023-01-31T12:53:32.141Z,10.45
2023-01-31T12:56:12.583Z,10.10
2023-01-31T12:58:53.612Z,10.25
2023-01-31T13:01:35.551Z,10.32
2023-01-31T13:04:24.354Z,10.93
2023-01-31T13:06:58.018Z,10.43
2023-01-31T13:09:29.777Z,10.85
2023-01-31T13:12:04.542Z,10.48
2023-01-31T13:14:37.338Z,11.15
2023-01-31T13:17:09.791Z,11.60
2023-01-31T13:22:12.941Z,13.32
2023-01-31T13:24:44.022Z,13.13
2023-01-31T13:27:21.046Z,15.00
2023-01-31T13:29:54.372Z,15.50
2023-01-31T13:32:29.023Z,13.65
2023-01-31T13:35:02.382Z,13.98
2023-01-31T13:37:34.069Z,14.35
2023-01-31T13:40:07.850Z,13.93
2023-01-31T13:42:36.993Z,13.88
2023-01-31T13:45:07.791Z,14.05
2023-01-31T13:47:46.953Z,14.93
2023-01-31T13:50:25.652Z,15.07
2023-01-31T13:52:58.143Z,15.07
2023-01-31T13:58:04.598Z,14.30
2023-01-31T14:00:40.173Z,15.10
2023-01-31T14:03:10.091Z,14.02
2023-01-31T14:06:07.913Z,12.85
2023-01-31T14:08:57.693Z,13.40
2023-01-31T14:11:36.340Z,15.15
2023-01-31T14:14:39.141Z,16.42
2023-01-31T14:17:10.910Z,16.65
2023-01-31T14:20:04.964Z,16.13
2023-01-31T14:22:36.243Z,17.08
2023-01-31T14:25:07.766Z,15.88
2023-01-31T14:27:39.289Z,12.77
2023-01-31T14:30:47.447Z,13.82
2023-01-31T14:33:23.493Z,13.13
2023-01-31T14:36:05.972Z,14.98
2023-01-31T14:38:47.622Z,14.15
2023-01-31T14:41:25.876Z,13.82
2023-01-31T14:44:07.436Z,15.02
2023-01-31T14:46:56.106Z,16.45
2023-01-31T14:49:42.189Z,19.35
2023-01-31T14:52:28.455Z,15.27
2023-01-31T14:55:12.692Z,15.00
2023-01-31T14:57:45.483Z,15.02
2023-01-31T15:00:22.199Z,17.10
2023-01-31T15:02:56.864Z,15.13
2023-01-31T15:05:40.549Z,15.00
2023-01-31T15:08:38.023Z,15.05
2023-01-31T15:11:07.301Z,16.85
2023-01-31T15:13:41.724Z,15.80
2023-01-31T15:16:18.726Z,12.35
2023-01-31T15:18:51.257Z,15.93
2023-01-31T15:23:54.671Z,14.60
2023-01-31T15:26:24.937Z,14.90
2023-01-31T15:28:53.816Z,14.00
2023-01-31T15:31:27.916Z,14.07
2023-01-31T15:34:01.334Z,14.77
2023-01-31T15:36:34.350Z,13.20
2023-01-31T15:39:08.557Z,13.13
2023-01-31T15:41:40.210Z,14.90
2023-01-31T15:44:18.527Z,16.95
2023-01-31T15:46:47.977Z,13.85
2023-01-31T15:49:38.490Z,14.93
2023-01-31T15:52:13.947Z,13.98
2023-01-31T15:54:52.890Z,14.45
2023-01-31T15:57:23.072Z,13.65
2023-01-31T15:59:51.015Z,13.20
2023-01-31T16:02:26.349Z,13.63
2023-01-31T16:04:55.678Z,14.40
2023-01-31T16:07:28.428Z,14.32
2023-01-31T16:09:58.081Z,12.63
2023-01-31T16:12:27.103Z,13.95
2023-01-31T16:14:59.290Z,13.02
2023-01-31T16:17:28.845Z,13.68
2023-01-31T16:19:58.305Z,13.05
2023-01-31T16:22:28.998Z,13.68
2023-01-31T16:24:58.803Z,12.95
2023-01-31T16:27:29.253Z,12.05
2023-01-31T16:29:59.386Z,11.90
2023-01-31T16:32:29.497Z,11.48
2023-01-31T16:35:00.848Z,11.43
2023-01-31T16:37:34.811Z,11.50
2023-01-31T16:40:07.170Z,11.90
2023-01-31T16:42:39.121Z,12.55
2023-01-31T16:45:28.845Z,13.32
2023-01-31T16:48:10.036Z,11.73
2023-01-31T16:50:43.742Z,12.68
2023-01-31T16:53:39.985Z,13.02
2023-01-31T16:56:23.815Z,11.18
2023-01-31T16:58:55.283Z,11.73
2023-01-31T17:01:26.776Z,10.77
2023-01-31T17:04:16.769Z,11.07
2023-01-31T17:06:51.295Z,10.60
2023-01-31T17:09:22.577Z,10.60
2023-01-31T17:11:50.691Z,12.15
2023-01-31T17:14:18.373Z,10.93
2023-01-31T17:16:47.026Z,9.35
2023-01-31T17:19:16.102Z,8.50
2023-01-31T17:21:45.832Z,8.25
2023-01-31T17:24:15.475Z,10.73
2023-01-31T17:26:43.457Z,9.85
2023-01-31T17:29:11.463Z,9.48
2023-01-31T17:31:39.392Z,11.40
2023-01-31T17:34:13.833Z,13.02
2023-01-31T17:36:41.857Z,14.70
2023-01-31T17:39:10.910Z,10.63
2023-01-31T17:41:41.017Z,10.80
2023-01-31T17:44:10.585Z,11.43
2023-01-31T17:46:40.942Z,10.00
2023-01-31T17:49:09.105Z,11.48
2023-01-31T17:51:39.940Z,9.95
2023-01-31T17:54:08.533Z,9.57
2023-01-31T17:56:37.717Z,10.00
2023-01-31T17:59:05.853Z,9.23
2023-01-31T18:01:34.683Z,9.30
2023-01-31T18:04:04.315Z,9.13
2023-01-31T18:06:32.149Z,8.57
2023-01-31T18:09:03.730Z,9.57
2023-01-31T18:11:31.536Z,6.87
2023-01-31T18:14:03.334Z,7.13
2023-01-31T18:16:32.016Z,5.95
2023-01-31T18:18:59.798Z,6.00
2023-01-31T18:21:27.512Z,5.60
2023-01-31T18:23:56.906Z,6.13
2023-01-31T18:26:25.799Z,6.15
2023-01-31T18:28:55.440Z,6.38
2023-01-31T18:31:25.016Z,6.05
2023-01-31T18:33:53.331Z,5.50
2023-01-31T18:36:22.180Z,6.47
2023-01-31T18:38:53.773Z,5.72
2023-01-31T18:41:22.273Z,6.30
2023-01-31T18:43:50.619Z,8.02
2023-01-31T18:46:26.818Z,6.60
2023-01-31T18:48:59.879Z,5.65
2023-01-31T18:51:27.888Z,6.53
2023-01-31T18:53:55.697Z,5.65
2023-01-31T18:56:23.901Z,5.68
2023-01-31T18:59:00.971Z,4.65
2023-01-31T19:01:29.726Z,5.65
2023-01-31T19:03:59.273Z,6.13
2023-01-31T19:06:29.017Z,4.90
2023-01-31T19:08:58.928Z,4.53
2023-01-31T19:11:28.284Z,4.60
2023-01-31T19:13:56.145Z,5.13
2023-01-31T19:16:26.308Z,4.97
2023-01-31T19:18:55.688Z,5.63
2023-01-31T19:21:26.812Z,6.70
2023-01-31T19:23:57.433Z,6.65
2023-01-31T19:26:25.235Z,6.32
2023-01-31T19:28:53.466Z,5.40
2023-01-31T19:31:23.525Z,6.55
2023-01-31T19:33:53.038Z,8.18
2023-01-31T19:36:22.827Z,9.20
2023-01-31T19:38:52.837Z,6.50
2023-01-31T19:41:22.951Z,6.03
2023-01-31T19:43:51.280Z,6.38
2023-01-31T19:46:19.787Z,6.35
2023-01-31T19:48:47.897Z,5.72
2023-01-31T19:51:17.565Z,7.35
2023-01-31T19:53:46.587Z,6.35
2023-01-31T19:56:16.136Z,6.68
2023-01-31T19:58:44.271Z,6.75
2023-01-31T20:01:13.813Z,6.88
2023-01-31T20:03:41.666Z,6.85
2023-01-31T20:06:11.254Z,7.35
2023-01-31T20:08:40.327Z,8.02
2023-01-31T20:11:08.850Z,7.93
2023-01-31T20:13:38.354Z,7.82
2023-01-31T20:16:08.904Z,7.80
2023-01-31T20:18:37.893Z,8.48
2023-01-31T20:21:06.717Z,16.20
2023-01-31T20:23:34.805Z,23.95
2023-01-31T20:26:03.178Z,19.40
2023-01-31T20:28:34.397Z,14.93
2023-01-31T20:31:06.406Z,10.80
2023-01-31T20:33:34.752Z,10.88
2023-01-31T20:36:02.633Z,9.65
2023-01-31T20:38:30.861Z,9.20
2023-01-31T20:40:58.690Z,9.50
2023-01-31T20:43:27.321Z,9.80
2023-01-31T20:46:02.822Z,9.40
2023-01-31T20:48:31.987Z,9.93
2023-01-31T20:51:00.269Z,10.02
2023-01-31T20:53:29.440Z,10.30
2023-01-31T20:55:59.234Z,9.10
2023-01-31T20:58:27.695Z,8.55
2023-01-31T21:00:56.209Z,8.32
2023-01-31T21:03:24.871Z,9.10
2023-01-31T21:05:54.437Z,9.00
2023-01-31T21:08:22.382Z,8.98
2023-01-31T21:10:50.869Z,9.50
2023-01-31T21:13:19.097Z,9.02
2023-01-31T21:15:54.544Z,9.13
2023-01-31T21:18:23.660Z,8.57
2023-01-31T21:20:52.031Z,8.15
2023-01-31T21:23:21.148Z,8.27
2023-01-31T21:25:48.867Z,8.35
2023-01-31T21:28:16.578Z,9.68
2023-01-31T21:30:44.771Z,8.63
2023-01-31T21:33:12.628Z,8.40
2023-01-31T21:35:40.310Z,8.63
2023-01-31T21:38:15.733Z,8.65
2023-01-31T21:44:07.602Z,9.73
2023-01-31T21:46:46.225Z,7.82
2023-01-31T21:49:26.068Z,7.95
2023-01-31T21:52:04.848Z,8.02
2023-01-31T21:54:54.539Z,8.57
2023-01-31T21:57:26.230Z,8.15
2023-01-31T21:59:53.927Z,7.78
2023-01-31T22:02:21.675Z,8.25
2023-01-31T22:04:52.319Z,8.88
2023-01-31T22:07:19.959Z,9.23
2023-01-31T22:09:47.607Z,8.82
2023-01-31T22:12:15.706Z,9.18
2023-01-31T22:14:44.788Z,8.82
2023-01-31T22:17:12.576Z,10.02
2023-01-31T22:19:40.283Z,10.50
2023-01-31T22:22:07.960Z,10.88
2023-01-31T22:24:35.659Z,11.00
2023-01-31T22:27:03.413Z,12.15
2023-01-31T22:29:31.194Z,11.43
2023-01-31T22:32:00.281Z,13.05
2023-01-31T22:34:27.946Z,14.15
2023-01-31T22:36:55.586Z,11.77
2023-01-31T22:39:23.305Z,12.27
2023-01-31T22:41:50.974Z,12.05
2023-01-31T22:44:18.789Z,14.32
2023-01-31T22:46:46.684Z,14.32
2023-01-31T22:49:15.716Z,13.85
2023-01-31T22:51:43.391Z,14.13
2023-01-31T22:54:11.115Z,13.48
2023-01-31T22:56:38.858Z,12.82
2023-01-31T22:59:08.219Z,13.95
2023-01-31T23:01:38.008Z,13.70
2023-01-31T23:04:08.998Z,12.32
2023-01-31T23:06:39.194Z,13.23
2023-01-31T23:09:08.163Z,12.88
2023-01-31T23:11:35.791Z,12.88
2023-01-31T23:14:03.487Z,12.90
2023-01-31T23:16:45.062Z,11.98
2023-01-31T23:19:13.675Z,12.00
2023-01-31T23:21:44.158Z,10.80
2023-01-31T23:24:12.873Z,10.65
2023-01-31T23:26:40.539Z,10.73
2023-01-31T23:29:08.241Z,9.65
2023-01-31T23:31:36.142Z,9.38
2023-01-31T23:34:06.007Z,8.50
2023-01-31T23:36:33.976Z,8.55
2023-01-31T23:39:03.049Z,8.60
2023-01-31T23:41:30.731Z,7.90
2023-01-31T23:43:58.387Z,8.15
2023-01-31T23:46:26.230Z,8.48
2023-01-31T23:48:54.200Z,7.68
2023-01-31T23:51:21.902Z,7.20
2023-01-31T23:53:49.537Z,7.65
2023-01-31T23:56:18.603Z,7.07
2023-01-31T23:58:46.283Z,6.90
